sensor_id;sensor_type;location;lat;lon;timestamp;pressure;altitude;pressure_sealevel;temperature
6550;BMP280;15142;48.888;9.134;2023-04-07T00:00:15;98131.25;;;6.86
6550;BMP280;15142;48.888;9.134;2023-04-07T00:02:44;98125.47;;;6.90
6550;BMP280;15142;48.888;9.134;2023-04-07T00:05:13;98121.66;;;6.93
6550;BMP280;15142;48.888;9.134;2023-04-07T00:07:42;98120.94;;;6.97
6550;BMP280;15142;48.888;9.134;2023-04-07T00:10:14;98114.28;;;6.91
6550;BMP280;15142;48.888;9.134;2023-04-07T00:12:43;98115.84;;;6.92
6550;BMP280;15142;48.888;9.134;2023-04-07T00:15:12;98109.03;;;6.98
6550;BMP280;15142;48.888;9.134;2023-04-07T00:17:40;98109.03;;;6.98
6550;BMP280;15142;48.888;9.134;2023-04-07T00:20:10;98101.41;;;6.98
6550;BMP280;15142;48.888;9.134;2023-04-07T00:22:39;98105.19;;;6.95
6550;BMP280;15142;48.888;9.134;2023-04-07T00:25:08;98101.34;;;6.88
6550;BMP280;15142;48.888;9.134;2023-04-07T00:27:40;98092.72;;;6.89
6550;BMP280;15142;48.888;9.134;2023-04-07T00:30:09;98088.41;;;6.84
6550;BMP280;15142;48.888;9.134;2023-04-07T00:32:38;98083.78;;;6.81
6550;BMP280;15142;48.888;9.134;2023-04-07T00:35:07;98069.84;;;6.84
6550;BMP280;15142;48.888;9.134;2023-04-07T00:37:36;98080.53;;;6.86
6550;BMP280;15142;48.888;9.134;2023-04-07T00:40:06;98079.00;;;6.85
6550;BMP280;15142;48.888;9.134;2023-04-07T00:42:36;98074.94;;;6.84
6550;BMP280;15142;48.888;9.134;2023-04-07T00:45:08;98065.28;;;6.81
6550;BMP280;15142;48.888;9.134;2023-04-07T00:47:37;98077.00;;;6.87
6550;BMP280;15142;48.888;9.134;2023-04-07T00:50:07;98071.63;;;6.83
6550;BMP280;15142;48.888;9.134;2023-04-07T00:52:36;98077.00;;;6.92
6550;BMP280;15142;48.888;9.134;2023-04-07T00:55:07;98066.88;;;6.87
6550;BMP280;15142;48.888;9.134;2023-04-07T00:57:36;98050.31;;;6.79
6550;BMP280;15142;48.888;9.134;2023-04-07T01:00:09;98066.28;;;6.80
6550;BMP280;15142;48.888;9.134;2023-04-07T01:02:41;98058.41;;;6.76
6550;BMP280;15142;48.888;9.134;2023-04-07T01:05:15;98053.84;;;6.78
6550;BMP280;15142;48.888;9.134;2023-04-07T01:07:54;98047.75;;;6.75
6550;BMP280;15142;48.888;9.134;2023-04-07T01:10:27;98048.53;;;6.75
6550;BMP280;15142;48.888;9.134;2023-04-07T01:13:06;98050.25;;;6.70
6550;BMP280;15142;48.888;9.134;2023-04-07T01:15:39;98043.41;;;6.70
6550;BMP280;15142;48.888;9.134;2023-04-07T01:18:16;98041.34;;;6.67
6550;BMP280;15142;48.888;9.134;2023-04-07T01:20:50;98037.81;;;6.68
6550;BMP280;15142;48.888;9.134;2023-04-07T01:23:24;98035.75;;;6.65
6550;BMP280;15142;48.888;9.134;2023-04-07T01:26:17;98031.44;;;6.66
6550;BMP280;15142;48.888;9.134;2023-04-07T01:29:27;98029.44;;;6.68
6550;BMP280;15142;48.888;9.134;2023-04-07T01:31:59;98042.38;;;6.66
6550;BMP280;15142;48.888;9.134;2023-04-07T01:34:30;98024.63;;;6.66
6550;BMP280;15142;48.888;9.134;2023-04-07T01:37:01;98030.22;;;6.68
6550;BMP280;15142;48.888;9.134;2023-04-07T01:39:31;98027.88;;;6.62
6550;BMP280;15142;48.888;9.134;2023-04-07T01:42:03;98018.25;;;6.59
6550;BMP280;15142;48.888;9.134;2023-04-07T01:44:35;98024.81;;;6.60
6550;BMP280;15142;48.888;9.134;2023-04-07T01:47:05;98020.53;;;6.60
6550;BMP280;15142;48.888;9.134;2023-04-07T01:49:34;98014.69;;;6.60
6550;BMP280;15142;48.888;9.134;2023-04-07T01:52:04;98010.41;;;6.60
6550;BMP280;15142;48.888;9.134;2023-04-07T01:54:34;98011.91;;;6.61
6550;BMP280;15142;48.888;9.134;2023-04-07T01:57:03;98006.84;;;6.61
6550;BMP280;15142;48.888;9.134;2023-04-07T01:59:31;98015.22;;;6.62
6550;BMP280;15142;48.888;9.134;2023-04-07T02:02:04;98004.31;;;6.61
6550;BMP280;15142;48.888;9.134;2023-04-07T02:04:36;98006.84;;;6.61
6550;BMP280;15142;48.888;9.134;2023-04-07T02:07:11;97999.97;;;6.57
6550;BMP280;15142;48.888;9.134;2023-04-07T02:09:46;97996.47;;;6.63
6550;BMP280;15142;48.888;9.134;2023-04-07T02:12:16;97995.44;;;6.64
6550;BMP280;15142;48.888;9.134;2023-04-07T02:14:57;98001.78;;;6.61
6550;BMP280;15142;48.888;9.134;2023-04-07T02:17:29;97994.69;;;6.63
6550;BMP280;15142;48.888;9.134;2023-04-07T02:20:01;97996.22;;;6.64
6550;BMP280;15142;48.888;9.134;2023-04-07T02:22:32;97995.44;;;6.64
6550;BMP280;15142;48.888;9.134;2023-04-07T02:25:01;97994.94;;;6.67
6550;BMP280;15142;48.888;9.134;2023-04-07T02:27:29;97995.19;;;6.65
6550;BMP280;15142;48.888;9.134;2023-04-07T02:29:58;97993.41;;;6.66
6550;BMP280;15142;48.888;9.134;2023-04-07T02:32:29;97981.50;;;6.61
6550;BMP280;15142;48.888;9.134;2023-04-07T02:34:58;97979.47;;;6.63
6550;BMP280;15142;48.888;9.134;2023-04-07T02:37:27;97980.50;;;6.67
6550;BMP280;15142;48.888;9.134;2023-04-07T02:39:56;97978.47;;;6.69
6550;BMP280;15142;48.888;9.134;2023-04-07T02:42:25;97976.97;;;6.68
6550;BMP280;15142;48.888;9.134;2023-04-07T02:44:54;97970.88;;;6.69
6550;BMP280;15142;48.888;9.134;2023-04-07T02:47:23;97975.97;;;6.74
6550;BMP280;15142;48.888;9.134;2023-04-07T02:49:55;97969.91;;;6.75
6550;BMP280;15142;48.888;9.134;2023-04-07T02:52:24;97970.41;;;6.77
6550;BMP280;15142;48.888;9.134;2023-04-07T02:54:53;97963.56;;;6.77
6550;BMP280;15142;48.888;9.134;2023-04-07T02:57:25;97967.88;;;6.72
6550;BMP280;15142;48.888;9.134;2023-04-07T02:59:57;97961.25;;;6.71
6550;BMP280;15142;48.888;9.134;2023-04-07T03:02:40;97962.28;;;6.70
6550;BMP280;15142;48.888;9.134;2023-04-07T03:05:11;97959.22;;;6.68
6550;BMP280;15142;48.888;9.134;2023-04-07T03:07:40;97965.34;;;6.72
6550;BMP280;15142;48.888;9.134;2023-04-07T03:10:10;97959.22;;;6.68
6550;BMP280;15142;48.888;9.134;2023-04-07T03:12:39;97959.75;;;6.70
6550;BMP280;15142;48.888;9.134;2023-04-07T03:15:08;97963.31;;;6.79
6550;BMP280;15142;48.888;9.134;2023-04-07T03:17:39;97954.19;;;6.73
6550;BMP280;15142;48.888;9.134;2023-04-07T03:20:12;97953.16;;;6.74
6550;BMP280;15142;48.888;9.134;2023-04-07T03:22:41;97946.34;;;6.75
6550;BMP280;15142;48.888;9.134;2023-04-07T03:25:18;97949.38;;;6.76
6550;BMP280;15142;48.888;9.134;2023-04-07T03:27:48;97942.50;;;6.77
6550;BMP280;15142;48.888;9.134;2023-04-07T03:30:18;97935.66;;;6.77
6550;BMP280;15142;48.888;9.134;2023-04-07T03:32:47;97937.97;;;6.79
6550;BMP280;15142;48.888;9.134;2023-04-07T03:35:19;97938.72;;;6.79
6550;BMP280;15142;48.888;9.134;2023-04-07T03:37:47;97945.34;;;6.80
6550;BMP280;15142;48.888;9.134;2023-04-07T03:40:17;97939.47;;;6.80
6550;BMP280;15142;48.888;9.134;2023-04-07T03:42:47;97936.94;;;6.80
6550;BMP280;15142;48.888;9.134;2023-04-07T03:45:16;97928.56;;;6.79
6550;BMP280;15142;48.888;9.134;2023-04-07T03:47:48;97924.25;;;6.80
6550;BMP280;15142;48.888;9.134;2023-04-07T03:50:20;97925.81;;;6.81
6550;BMP280;15142;48.888;9.134;2023-04-07T03:53:12;97936.22;;;6.84
6550;BMP280;15142;48.888;9.134;2023-04-07T03:55:42;97926.09;;;6.84
6550;BMP280;15142;48.888;9.134;2023-04-07T03:58:19;97926.84;;;6.85
6550;BMP280;15142;48.888;9.134;2023-04-07T04:00:49;97925.31;;;6.84
6550;BMP280;15142;48.888;9.134;2023-04-07T04:03:17;97921.78;;;6.85
6550;BMP280;15142;48.888;9.134;2023-04-07T04:06:04;97927.38;;;6.87
6550;BMP280;15142;48.888;9.134;2023-04-07T04:08:33;97918.47;;;6.84
6550;BMP280;15142;48.888;9.134;2023-04-07T04:11:01;97933.44;;;6.86
6550;BMP280;15142;48.888;9.134;2023-04-07T04:13:36;97915.94;;;6.84
6550;BMP280;15142;48.888;9.134;2023-04-07T04:16:06;97924.84;;;6.87
6550;BMP280;15142;48.888;9.134;2023-04-07T04:18:38;97922.53;;;6.85
6550;BMP280;15142;48.888;9.134;2023-04-07T04:21:12;97921.53;;;6.86
6550;BMP280;15142;48.888;9.134;2023-04-07T04:23:43;97914.13;;;6.80
6550;BMP280;15142;48.888;9.134;2023-04-07T04:26:12;97918.19;;;6.81
6550;BMP280;15142;48.888;9.134;2023-04-07T04:28:42;97910.59;;;6.81
6550;BMP280;15142;48.888;9.134;2023-04-07T04:31:12;97919.69;;;6.77
6550;BMP280;15142;48.888;9.134;2023-04-07T04:33:43;97912.59;;;6.79
6550;BMP280;15142;48.888;9.134;2023-04-07T04:36:14;97915.38;;;6.77
6550;BMP280;15142;48.888;9.134;2023-04-07T04:38:44;97912.59;;;6.79
6550;BMP280;15142;48.888;9.134;2023-04-07T04:41:16;97915.91;;;6.79
6550;BMP280;15142;48.888;9.134;2023-04-07T04:43:46;97918.19;;;6.81
6550;BMP280;15142;48.888;9.134;2023-04-07T04:46:19;97920.50;;;6.82
6550;BMP280;15142;48.888;9.134;2023-04-07T04:48:49;97927.31;;;6.82
6550;BMP280;15142;48.888;9.134;2023-04-07T04:51:22;97927.81;;;6.79
6550;BMP280;15142;48.888;9.134;2023-04-07T04:53:56;97926.78;;;6.80
6550;BMP280;15142;48.888;9.134;2023-04-07T04:56:26;97921.53;;;6.86
6550;BMP280;15142;48.888;9.134;2023-04-07T04:58:55;97928.34;;;6.86
6550;BMP280;15142;48.888;9.134;2023-04-07T05:01:34;97929.91;;;6.87
6550;BMP280;15142;48.888;9.134;2023-04-07T05:04:07;97924.06;;;6.91
6550;BMP280;15142;48.888;9.134;2023-04-07T05:06:44;97924.34;;;6.95
6550;BMP280;15142;48.888;9.134;2023-04-07T05:09:16;97929.38;;;6.90
6550;BMP280;15142;48.888;9.134;2023-04-07T05:11:47;97921.75;;;6.90
6550;BMP280;15142;48.888;9.134;2023-04-07T05:14:16;97926.38;;;6.93
6550;BMP280;15142;48.888;9.134;2023-04-07T05:16:51;97928.38;;;6.91
6550;BMP280;15142;48.888;9.134;2023-04-07T05:19:25;97927.34;;;6.92
6550;BMP280;15142;48.888;9.134;2023-04-07T05:22:02;97927.63;;;6.95
6550;BMP280;15142;48.888;9.134;2023-04-07T05:24:39;97923.31;;;6.91
6550;BMP280;15142;48.888;9.134;2023-04-07T05:27:07;97921.28;;;6.88
6550;BMP280;15142;48.888;9.134;2023-04-07T05:29:37;97928.88;;;6.88
6550;BMP280;15142;48.888;9.134;2023-04-07T05:32:12;97927.63;;;6.90
6550;BMP280;15142;48.888;9.134;2023-04-07T05:34:41;97924.28;;;6.90
6550;BMP280;15142;48.888;9.134;2023-04-07T05:37:13;97926.59;;;6.91
6550;BMP280;15142;48.888;9.134;2023-04-07T05:39:43;97929.88;;;6.92
6550;BMP280;15142;48.888;9.134;2023-04-07T05:42:13;97929.69;;;6.98
6550;BMP280;15142;48.888;9.134;2023-04-07T05:44:45;97937.53;;;7.02
6550;BMP280;15142;48.888;9.134;2023-04-07T05:47:14;97926.38;;;6.98
6550;BMP280;15142;48.888;9.134;2023-04-07T05:49:43;97927.16;;;6.98
6550;BMP280;15142;48.888;9.134;2023-04-07T05:52:16;97928.94;;;7.03
6550;BMP280;15142;48.888;9.134;2023-04-07T05:54:52;97928.41;;;7.01
6550;BMP280;15142;48.888;9.134;2023-04-07T05:57:25;97926.88;;;6.95
6550;BMP280;15142;48.888;9.134;2023-04-07T05:59:57;97926.88;;;6.95
6550;BMP280;15142;48.888;9.134;2023-04-07T06:02:27;97930.72;;;7.02
6550;BMP280;15142;48.888;9.134;2023-04-07T06:04:56;97936.56;;;7.07
6550;BMP280;15142;48.888;9.134;2023-04-07T06:07:27;97934.78;;;7.13
6550;BMP280;15142;48.888;9.134;2023-04-07T06:09:56;97928.97;;;7.12
6550;BMP280;15142;48.888;9.134;2023-04-07T06:12:25;97934.03;;;7.17
6550;BMP280;15142;48.888;9.134;2023-04-07T06:14:55;97933.81;;;7.19
6550;BMP280;15142;48.888;9.134;2023-04-07T06:17:24;97939.16;;;7.22
6550;BMP280;15142;48.888;9.134;2023-04-07T06:19:52;97940.41;;;7.20
6550;BMP280;15142;48.888;9.134;2023-04-07T06:22:21;97942.69;;;7.21
6550;BMP280;15142;48.888;9.134;2023-04-07T06:24:52;97941.19;;;7.20
6550;BMP280;15142;48.888;9.134;2023-04-07T06:27:21;97934.31;;;7.26
6550;BMP280;15142;48.888;9.134;2023-04-07T06:29:50;97941.22;;;7.30
6550;BMP280;15142;48.888;9.134;2023-04-07T06:32:19;97934.31;;;7.36
6550;BMP280;15142;48.888;9.134;2023-04-07T06:34:47;97938.69;;;7.40
6550;BMP280;15142;48.888;9.134;2023-04-07T06:37:16;97936.63;;;7.37
6550;BMP280;15142;48.888;9.134;2023-04-07T06:39:46;97939.22;;;7.42
6550;BMP280;15142;48.888;9.134;2023-04-07T06:42:17;97949.38;;;7.42
6550;BMP280;15142;48.888;9.134;2023-04-07T06:44:56;97934.84;;;7.38
6550;BMP280;15142;48.888;9.134;2023-04-07T06:47:25;97937.44;;;7.42
6550;BMP280;15142;48.888;9.134;2023-04-07T06:49:54;97937.41;;;7.47
6550;BMP280;15142;48.888;9.134;2023-04-07T06:52:22;97927.75;;;7.35
6550;BMP280;15142;48.888;9.134;2023-04-07T06:54:51;97924.72;;;7.33
6550;BMP280;15142;48.888;9.134;2023-04-07T06:57:22;97924.44;;;7.29
6550;BMP280;15142;48.888;9.134;2023-04-07T06:59:52;97931.06;;;7.30
6550;BMP280;15142;48.888;9.134;2023-04-07T07:02:21;97938.38;;;7.27
6550;BMP280;15142;48.888;9.134;2023-04-07T07:04:50;97936.09;;;7.25
6550;BMP280;15142;48.888;9.134;2023-04-07T07:07:18;97930.03;;;7.26
6550;BMP280;15142;48.888;9.134;2023-04-07T07:09:47;97930.50;;;7.23
6550;BMP280;15142;48.888;9.134;2023-04-07T07:12:15;97935.56;;;7.23
6550;BMP280;15142;48.888;9.134;2023-04-07T07:14:47;97929.50;;;7.24
6550;BMP280;15142;48.888;9.134;2023-04-07T07:17:15;97924.19;;;7.31
6550;BMP280;15142;48.888;9.134;2023-04-07T07:19:44;97928.75;;;7.34
6550;BMP280;15142;48.888;9.134;2023-04-07T07:22:12;97921.13;;;7.34
6550;BMP280;15142;48.888;9.134;2023-04-07T07:24:41;97922.16;;;7.38
6550;BMP280;15142;48.888;9.134;2023-04-07T07:27:10;97931.06;;;7.45
6550;BMP280;15142;48.888;9.134;2023-04-07T07:29:38;97936.19;;;7.65
6550;BMP280;15142;48.888;9.134;2023-04-07T07:32:09;97941.78;;;8.06
6550;BMP280;15142;48.888;9.134;2023-04-07T07:34:38;97940.75;;;8.17
6550;BMP280;15142;48.888;9.134;2023-04-07T07:37:06;97935.88;;;8.35
6550;BMP280;15142;48.888;9.134;2023-04-07T07:39:37;97938.34;;;8.64
6550;BMP280;15142;48.888;9.134;2023-04-07T07:42:05;97941.09;;;8.73
6550;BMP280;15142;48.888;9.134;2023-04-07T07:44:34;97937.94;;;8.95
6550;BMP280;15142;48.888;9.134;2023-04-07T07:47:02;97941.19;;;9.11
6550;BMP280;15142;48.888;9.134;2023-04-07T07:49:33;97938.09;;;9.19
6550;BMP280;15142;48.888;9.134;2023-04-07T07:52:05;97944.09;;;9.32
6550;BMP280;15142;48.888;9.134;2023-04-07T07:54:33;97935.09;;;9.45
6550;BMP280;15142;48.888;9.134;2023-04-07T07:57:02;97946.69;;;9.65
6550;BMP280;15142;48.888;9.134;2023-04-07T07:59:30;97937.44;;;9.74
6550;BMP280;15142;48.888;9.134;2023-04-07T08:01:59;97945.38;;;10.01
6550;BMP280;15142;48.888;9.134;2023-04-07T08:04:28;97935.44;;;10.22
6550;BMP280;15142;48.888;9.134;2023-04-07T08:06:59;97928.78;;;10.26
6550;BMP280;15142;48.888;9.134;2023-04-07T08:09:28;97936.09;;;10.10
6550;BMP280;15142;48.888;9.134;2023-04-07T08:11:57;97922.84;;;10.08
6550;BMP280;15142;48.888;9.134;2023-04-07T08:14:25;97932.56;;;10.06
6550;BMP280;15142;48.888;9.134;2023-04-07T08:16:54;97936.63;;;10.07
6550;BMP280;15142;48.888;9.134;2023-04-07T08:19:23;97950.72;;;9.99
6550;BMP280;15142;48.888;9.134;2023-04-07T08:21:51;97950.31;;;10.16
6550;BMP280;15142;48.888;9.134;2023-04-07T08:24:22;97950.41;;;10.06
6550;BMP280;15142;48.888;9.134;2023-04-07T08:26:51;97942.72;;;10.11
6550;BMP280;15142;48.888;9.134;2023-04-07T08:29:21;97957.19;;;10.43
6550;BMP280;15142;48.888;9.134;2023-04-07T08:31:49;97968.22;;;10.98
6550;BMP280;15142;48.888;9.134;2023-04-07T08:34:18;97971.97;;;11.42
6550;BMP280;15142;48.888;9.134;2023-04-07T08:36:46;97969.06;;;11.80
6550;BMP280;15142;48.888;9.134;2023-04-07T08:39:15;97955.16;;;11.86
6550;BMP280;15142;48.888;9.134;2023-04-07T08:41:47;97945.03;;;11.81
6550;BMP280;15142;48.888;9.134;2023-04-07T08:44:20;97945.94;;;11.71
6550;BMP280;15142;48.888;9.134;2023-04-07T08:46:50;97958.19;;;11.74
6550;BMP280;15142;48.888;9.134;2023-04-07T08:49:20;97962.06;;;11.72
6550;BMP280;15142;48.888;9.134;2023-04-07T08:51:51;97955.03;;;11.33
6550;BMP280;15142;48.888;9.134;2023-04-07T08:54:22;97969.00;;;11.53
6550;BMP280;15142;48.888;9.134;2023-04-07T08:56:53;97946.50;;;11.55
6550;BMP280;15142;48.888;9.134;2023-04-07T08:59:22;97963.34;;;11.38
6550;BMP280;15142;48.888;9.134;2023-04-07T09:01:53;97951.03;;;11.58
6550;BMP280;15142;48.888;9.134;2023-04-07T09:04:22;97961.59;;;11.70
6550;BMP280;15142;48.888;9.134;2023-04-07T09:06:52;97963.63;;;11.86
6550;BMP280;15142;48.888;9.134;2023-04-07T09:09:20;97968.53;;;11.83
6550;BMP280;15142;48.888;9.134;2023-04-07T09:11:49;97946.94;;;11.26
6550;BMP280;15142;48.888;9.134;2023-04-07T09:14:20;97956.59;;;11.78
6550;BMP280;15142;48.888;9.134;2023-04-07T09:16:49;97952.25;;;11.92
6550;BMP280;15142;48.888;9.134;2023-04-07T09:19:17;97964.59;;;12.03
6550;BMP280;15142;48.888;9.134;2023-04-07T09:21:47;97958.72;;;11.58
6550;BMP280;15142;48.888;9.134;2023-04-07T09:24:20;97959.19;;;11.60
6550;BMP280;15142;48.888;9.134;2023-04-07T09:26:50;97959.22;;;11.73
6550;BMP280;15142;48.888;9.134;2023-04-07T09:29:21;97956.31;;;11.48
6550;BMP280;15142;48.888;9.134;2023-04-07T09:31:49;97956.75;;;11.68
6550;BMP280;15142;48.888;9.134;2023-04-07T09:34:23;97950.78;;;11.73
6550;BMP280;15142;48.888;9.134;2023-04-07T09:36:53;97962.44;;;11.79
6550;BMP280;15142;48.888;9.134;2023-04-07T09:39:22;97966.75;;;11.65
6550;BMP280;15142;48.888;9.134;2023-04-07T09:41:50;97961.53;;;11.57
6550;BMP280;15142;48.888;9.134;2023-04-07T09:44:22;97972.94;;;11.64
6550;BMP280;15142;48.888;9.134;2023-04-07T09:46:53;97970.16;;;11.92
6550;BMP280;15142;48.888;9.134;2023-04-07T09:49:23;97966.72;;;12.28
6550;BMP280;15142;48.888;9.134;2023-04-07T09:51:53;97958.81;;;12.51
6550;BMP280;15142;48.888;9.134;2023-04-07T09:54:40;97965.69;;;12.90
6550;BMP280;15142;48.888;9.134;2023-04-07T09:57:09;97956.13;;;12.83
6550;BMP280;15142;48.888;9.134;2023-04-07T09:59:41;97952.00;;;12.33
6550;BMP280;15142;48.888;9.134;2023-04-07T10:02:10;97945.47;;;12.41
6550;BMP280;15142;48.888;9.134;2023-04-07T10:04:39;97954.69;;;12.90
6550;BMP280;15142;48.888;9.134;2023-04-07T10:07:08;97957.38;;;13.42
6550;BMP280;15142;48.888;9.134;2023-04-07T10:09:36;97945.34;;;13.80
6550;BMP280;15142;48.888;9.134;2023-04-07T10:12:05;97946.84;;;13.43
6550;BMP280;15142;48.888;9.134;2023-04-07T10:14:34;97938.97;;;13.70
6550;BMP280;15142;48.888;9.134;2023-04-07T10:17:06;97939.56;;;13.67
6550;BMP280;15142;48.888;9.134;2023-04-07T10:19:35;97938.31;;;13.56
6550;BMP280;15142;48.888;9.134;2023-04-07T10:22:05;97928.75;;;13.48
6550;BMP280;15142;48.888;9.134;2023-04-07T10:24:45;97927.34;;;13.42
6550;BMP280;15142;48.888;9.134;2023-04-07T10:27:36;97932.88;;;13.14
6550;BMP280;15142;48.888;9.134;2023-04-07T10:30:16;97924.06;;;12.37
6550;BMP280;15142;48.888;9.134;2023-04-07T10:32:49;97927.81;;;11.99
6550;BMP280;15142;48.888;9.134;2023-04-07T10:35:19;97918.88;;;11.84
6550;BMP280;15142;48.888;9.134;2023-04-07T10:38:09;97928.97;;;12.07
6550;BMP280;15142;48.888;9.134;2023-04-07T10:40:39;97929.34;;;12.00
6550;BMP280;15142;48.888;9.134;2023-04-07T10:43:08;97932.19;;;11.99
6550;BMP280;15142;48.888;9.134;2023-04-07T10:45:53;97934.38;;;12.32
6550;BMP280;15142;48.888;9.134;2023-04-07T10:48:26;97940.13;;;12.37
6550;BMP280;15142;48.888;9.134;2023-04-07T10:51:14;97952.22;;;12.85
6550;BMP280;15142;48.888;9.134;2023-04-07T10:57:05;97952.31;;;13.58
6550;BMP280;15142;48.888;9.134;2023-04-07T10:59:36;97953.47;;;14.12
6550;BMP280;15142;48.888;9.134;2023-04-07T11:02:29;97948.94;;;14.73
6550;BMP280;15142;48.888;9.134;2023-04-07T11:05:01;97945.50;;;15.02
6550;BMP280;15142;48.888;9.134;2023-04-07T11:07:44;97942.38;;;14.25
6550;BMP280;15142;48.888;9.134;2023-04-07T11:10:14;97941.25;;;13.71
6550;BMP280;15142;48.888;9.134;2023-04-07T11:12:57;97941.75;;;13.30
6550;BMP280;15142;48.888;9.134;2023-04-07T11:15:26;97939.13;;;12.86
6550;BMP280;15142;48.888;9.134;2023-04-07T11:18:11;97937.38;;;12.74
6550;BMP280;15142;48.888;9.134;2023-04-07T11:20:44;97932.00;;;12.62
6550;BMP280;15142;48.888;9.134;2023-04-07T11:23:14;97940.13;;;12.51
6550;BMP280;15142;48.888;9.134;2023-04-07T11:25:44;97949.63;;;12.10
6550;BMP280;15142;48.888;9.134;2023-04-07T11:28:14;97943.03;;;11.91
6550;BMP280;15142;48.888;9.134;2023-04-07T11:30:48;97944.56;;;11.79
6550;BMP280;15142;48.888;9.134;2023-04-07T11:33:19;97942.59;;;11.76
6550;BMP280;15142;48.888;9.134;2023-04-07T11:35:53;97943.34;;;11.90
6550;BMP280;15142;48.888;9.134;2023-04-07T11:38:24;97944.41;;;11.89
6550;BMP280;15142;48.888;9.134;2023-04-07T11:40:54;97947.31;;;11.82
6550;BMP280;15142;48.888;9.134;2023-04-07T11:43:24;97959.59;;;11.67
6550;BMP280;15142;48.888;9.134;2023-04-07T11:46:04;97963.53;;;11.60
6550;BMP280;15142;48.888;9.134;2023-04-07T11:48:35;97954.97;;;11.51
6550;BMP280;15142;48.888;9.134;2023-04-07T11:51:14;97963.53;;;11.41
6550;BMP280;15142;48.888;9.134;2023-04-07T11:53:44;97961.59;;;11.52
6550;BMP280;15142;48.888;9.134;2023-04-07T11:56:14;97965.41;;;11.36
6550;BMP280;15142;48.888;9.134;2023-04-07T11:58:47;97952.47;;;11.33
6550;BMP280;15142;48.888;9.134;2023-04-07T12:01:16;97965.91;;;11.38
6550;BMP280;15142;48.888;9.134;2023-04-07T12:03:55;97974.94;;;11.67
6550;BMP280;15142;48.888;9.134;2023-04-07T12:06:32;97969.56;;;11.82
6550;BMP280;15142;48.888;9.134;2023-04-07T12:09:04;97969.44;;;12.18
6550;BMP280;15142;48.888;9.134;2023-04-07T12:11:33;97969.91;;;12.47
6550;BMP280;15142;48.888;9.134;2023-04-07T12:14:03;97973.03;;;12.30
6550;BMP280;15142;48.888;9.134;2023-04-07T12:16:31;97963.50;;;12.36
6550;BMP280;15142;48.888;9.134;2023-04-07T12:19:05;97965.75;;;12.64
6550;BMP280;15142;48.888;9.134;2023-04-07T12:21:36;97974.44;;;12.76
6550;BMP280;15142;48.888;9.134;2023-04-07T12:24:05;97966.56;;;12.73
6550;BMP280;15142;48.888;9.134;2023-04-07T12:26:34;97971.16;;;12.62
6550;BMP280;15142;48.888;9.134;2023-04-07T12:29:03;97975.19;;;12.63
6550;BMP280;15142;48.888;9.134;2023-04-07T12:31:32;97975.44;;;12.54
6550;BMP280;15142;48.888;9.134;2023-04-07T12:34:01;97977.56;;;12.73
6550;BMP280;15142;48.888;9.134;2023-04-07T12:36:30;97982.34;;;12.66
6550;BMP280;15142;48.888;9.134;2023-04-07T12:39:01;97988.97;;;12.41
6550;BMP280;15142;48.888;9.134;2023-04-07T12:41:29;97982.63;;;12.38
6550;BMP280;15142;48.888;9.134;2023-04-07T12:43:58;97983.38;;;12.39
6550;BMP280;15142;48.888;9.134;2023-04-07T12:46:27;97978.53;;;12.51
6550;BMP280;15142;48.888;9.134;2023-04-07T12:48:55;97983.38;;;12.39
6550;BMP280;15142;48.888;9.134;2023-04-07T12:51:24;97980.53;;;12.40
6550;BMP280;15142;48.888;9.134;2023-04-07T12:53:53;97985.94;;;12.39
6550;BMP280;15142;48.888;9.134;2023-04-07T12:56:25;97982.06;;;12.55
6550;BMP280;15142;48.888;9.134;2023-04-07T12:58:53;97977.69;;;12.68
6550;BMP280;15142;48.888;9.134;2023-04-07T13:01:22;97984.91;;;12.66
6550;BMP280;15142;48.888;9.134;2023-04-07T13:03:50;97975.59;;;12.44
6550;BMP280;15142;48.888;9.134;2023-04-07T13:06:19;97986.41;;;12.41
6550;BMP280;15142;48.888;9.134;2023-04-07T13:08:48;97971.72;;;12.33
6550;BMP280;15142;48.888;9.134;2023-04-07T13:11:16;97980.34;;;12.37
6550;BMP280;15142;48.888;9.134;2023-04-07T13:13:49;97978.09;;;12.49
6550;BMP280;15142;48.888;9.134;2023-04-07T13:16:18;97968.91;;;12.48
6550;BMP280;15142;48.888;9.134;2023-04-07T13:18:46;97976.56;;;12.48
6550;BMP280;15142;48.888;9.134;2023-04-07T13:21:15;97974.50;;;12.36
6550;BMP280;15142;48.888;9.134;2023-04-07T13:23:43;97970.94;;;12.19
6550;BMP280;15142;48.888;9.134;2023-04-07T13:26:13;97967.00;;;11.82
6550;BMP280;15142;48.888;9.134;2023-04-07T13:28:41;97981.09;;;11.48
6550;BMP280;15142;48.888;9.134;2023-04-07T13:31:13;97975.44;;;11.51
6550;BMP280;15142;48.888;9.134;2023-04-07T13:33:44;97966.88;;;11.73
6550;BMP280;15142;48.888;9.134;2023-04-07T13:36:12;97967.59;;;11.92
6550;BMP280;15142;48.888;9.134;2023-04-07T13:38:41;97963.03;;;11.76
6550;BMP280;15142;48.888;9.134;2023-04-07T13:41:09;97973.84;;;11.37
6550;BMP280;15142;48.888;9.134;2023-04-07T13:43:38;97970.47;;;11.41
6550;BMP280;15142;48.888;9.134;2023-04-07T13:46:06;97980.94;;;11.58
6550;BMP280;15142;48.888;9.134;2023-04-07T13:48:37;97969.72;;;11.40
6550;BMP280;15142;48.888;9.134;2023-04-07T13:51:06;97974.41;;;11.15
6550;BMP280;15142;48.888;9.134;2023-04-07T13:53:35;97965.16;;;11.19
6550;BMP280;15142;48.888;9.134;2023-04-07T13:56:04;97967.44;;;11.21
6550;BMP280;15142;48.888;9.134;2023-04-07T13:58:34;97974.53;;;11.24
6550;BMP280;15142;48.888;9.134;2023-04-07T14:01:03;97972.84;;;11.19
6550;BMP280;15142;48.888;9.134;2023-04-07T14:03:31;97972.72;;;11.06
6550;BMP280;15142;48.888;9.134;2023-04-07T14:06:03;97981.94;;;11.25
6550;BMP280;15142;48.888;9.134;2023-04-07T14:08:31;97971.38;;;11.32
6550;BMP280;15142;48.888;9.134;2023-04-07T14:11:01;97981.78;;;11.35
6550;BMP280;15142;48.888;9.134;2023-04-07T14:13:29;97981.53;;;11.37
6550;BMP280;15142;48.888;9.134;2023-04-07T14:15:58;97979.84;;;11.45
6550;BMP280;15142;48.888;9.134;2023-04-07T14:18:27;97985.09;;;11.54
6550;BMP280;15142;48.888;9.134;2023-04-07T14:20:55;97978.03;;;11.64
6550;BMP280;15142;48.888;9.134;2023-04-07T14:23:27;97978.69;;;11.69
6550;BMP280;15142;48.888;9.134;2023-04-07T14:25:56;97973.91;;;11.81
6550;BMP280;15142;48.888;9.134;2023-04-07T14:28:26;97987.47;;;11.82
6550;BMP280;15142;48.888;9.134;2023-04-07T14:30:55;97982.84;;;11.66
6550;BMP280;15142;48.888;9.134;2023-04-07T14:33:23;97981.97;;;11.75
6550;BMP280;15142;48.888;9.134;2023-04-07T14:35:52;97979.88;;;12.08
6550;BMP280;15142;48.888;9.134;2023-04-07T14:38:20;97991.25;;;12.16
6550;BMP280;15142;48.888;9.134;2023-04-07T14:40:53;97980.31;;;12.10
6550;BMP280;15142;48.888;9.134;2023-04-07T14:43:21;97977.97;;;12.14
6550;BMP280;15142;48.888;9.134;2023-04-07T14:45:50;97984.38;;;12.11
6550;BMP280;15142;48.888;9.134;2023-04-07T14:48:18;97984.09;;;11.99
6550;BMP280;15142;48.888;9.134;2023-04-07T14:50:47;97984.69;;;12.23
6550;BMP280;15142;48.888;9.134;2023-04-07T14:53:16;97981.28;;;12.41